createdAt,value
2018-07-21T00:04:04.717Z,21.60
2018-07-21T00:08:59.452Z,21.50
2018-07-21T00:13:54.146Z,21.50
2018-07-21T00:18:48.783Z,21.60
2018-07-21T00:23:43.520Z,21.60
2018-07-21T00:28:38.315Z,21.50
2018-07-21T00:33:33.033Z,21.50
2018-07-21T00:38:27.719Z,21.40
2018-07-21T00:43:22.559Z,21.40
2018-07-21T00:48:17.297Z,21.30
2018-07-21T00:53:12.167Z,21.30
2018-07-21T00:58:06.867Z,21.40
2018-07-21T01:03:01.564Z,21.40
2018-07-21T01:07:56.283Z,21.50
2018-07-21T01:12:51.077Z,21.40
2018-07-21T01:17:45.759Z,21.30
2018-07-21T01:22:40.443Z,21.30
2018-07-21T01:27:35.319Z,21.30
2018-07-21T01:32:29.949Z,21.20
2018-07-21T01:37:24.672Z,21.30
2018-07-21T01:42:19.584Z,21.20
2018-07-21T01:47:14.391Z,21.10
2018-07-21T01:52:09.119Z,21.10
2018-07-21T01:57:03.750Z,21.10
2018-07-21T02:01:58.453Z,21.00
2018-07-21T02:06:53.116Z,21.00
2018-07-21T02:11:47.846Z,21.00
2018-07-21T02:16:42.793Z,20.90
2018-07-21T02:21:37.376Z,20.90
2018-07-21T02:26:32.059Z,20.80
2018-07-21T02:31:26.639Z,20.70
2018-07-21T02:36:21.403Z,20.60
2018-07-21T02:41:16.231Z,20.60
2018-07-21T02:46:11.038Z,20.50
2018-07-21T02:51:05.892Z,20.60
2018-07-21T02:56:00.685Z,20.60
2018-07-21T03:00:55.547Z,20.70
2018-07-21T03:05:50.235Z,20.60
2018-07-21T03:10:44.914Z,20.60
2018-07-21T03:15:39.589Z,20.60
2018-07-21T03:20:34.235Z,20.70
2018-07-21T03:25:28.957Z,20.60
2018-07-21T03:30:23.593Z,20.50
2018-07-21T03:35:18.299Z,20.50
2018-07-21T03:40:12.943Z,20.50
2018-07-21T03:45:07.606Z,20.40
2018-07-21T03:50:02.291Z,20.40
2018-07-21T03:54:57.863Z,20.30
2018-07-21T03:59:52.416Z,20.40
2018-07-21T04:04:47.108Z,20.40
2018-07-21T04:09:41.685Z,20.30
2018-07-21T04:14:36.308Z,20.40
2018-07-21T04:19:31.003Z,20.40
2018-07-21T04:29:20.053Z,20.50
2018-07-21T04:34:14.729Z,20.50
2018-07-21T04:39:11.321Z,20.30
2018-07-21T04:44:06.827Z,20.40
2018-07-21T04:49:01.641Z,20.30
2018-07-21T04:53:58.105Z,20.20
2018-07-21T04:58:52.909Z,20.30
2018-07-21T05:03:47.582Z,20.20
2018-07-21T05:08:42.272Z,20.20
2018-07-21T05:13:37.023Z,20.10
2018-07-21T05:18:31.668Z,20.10
2018-07-21T05:23:26.475Z,19.90
2018-07-21T05:28:21.312Z,19.80
2018-07-21T05:33:16.165Z,19.80
2018-07-21T05:38:10.898Z,19.80
2018-07-21T05:43:05.768Z,19.90
2018-07-21T05:53:18.669Z,20.20
2018-07-21T05:58:13.248Z,20.30
2018-07-21T06:03:08.159Z,20.50
2018-07-21T06:08:02.865Z,20.70
2018-07-21T06:12:57.590Z,20.70
2018-07-21T06:17:52.399Z,20.60
2018-07-21T06:22:47.444Z,20.70
2018-07-21T06:27:42.216Z,20.70
2018-07-21T08:04:06.235Z,21.30
2018-07-21T08:09:00.807Z,21.20
2018-07-21T08:13:55.385Z,21.10
2018-07-21T08:18:49.999Z,21.00
2018-07-21T08:23:44.633Z,20.90
2018-07-21T08:28:39.210Z,20.90
2018-07-21T08:33:33.798Z,20.90
2018-07-21T08:38:28.420Z,21.00
2018-07-21T08:43:23.224Z,21.20
2018-07-21T08:48:17.899Z,21.40
2018-07-21T08:53:12.560Z,21.60
2018-07-21T08:58:07.423Z,21.80
2018-07-21T09:03:02.123Z,22.30
2018-07-21T09:07:56.790Z,22.60
2018-07-21T09:12:51.434Z,22.80
2018-07-21T09:17:46.132Z,22.90
2018-07-21T09:22:40.753Z,23.00
2018-07-21T09:27:35.394Z,23.50
2018-07-21T09:32:29.994Z,23.70
2018-07-21T09:37:24.608Z,23.90
2018-07-21T09:42:19.357Z,24.00
2018-07-21T09:47:28.795Z,24.20
2018-07-21T09:52:23.486Z,24.20
2018-07-21T09:57:18.108Z,24.50
2018-07-21T10:02:12.800Z,25.10
2018-07-21T10:12:24.377Z,24.60
2018-07-21T10:17:23.782Z,23.70
2018-07-21T10:22:19.391Z,23.30
2018-07-21T10:27:15.396Z,23.40
2018-07-21T10:32:10.264Z,23.70
2018-07-21T10:37:04.929Z,24.30
2018-07-21T10:41:59.615Z,23.90
2018-07-21T10:46:55.302Z,23.50
2018-07-21T10:51:50.113Z,23.10
2018-07-21T10:56:44.779Z,22.90
2018-07-21T11:01:39.683Z,22.90
2018-07-21T11:06:34.699Z,23.50
2018-07-21T11:11:29.485Z,24.30
2018-07-21T11:16:24.235Z,24.90
2018-07-21T11:21:18.901Z,24.80
2018-07-21T11:26:13.834Z,24.60
2018-07-21T11:31:08.483Z,24.90
2018-07-21T11:36:03.450Z,26.00
2018-07-21T11:40:57.735Z,26.70
2018-07-21T11:45:52.361Z,27.10
2018-07-21T11:50:47.013Z,27.10
2018-07-21T11:55:41.803Z,27.00
2018-07-21T12:00:36.436Z,27.10
2018-07-21T12:05:31.168Z,27.20
2018-07-21T12:10:25.848Z,27.40
2018-07-21T12:15:21.432Z,26.80
2018-07-21T12:20:16.109Z,26.40
2018-07-21T12:25:10.736Z,26.20
2018-07-21T12:30:09.816Z,26.10
2018-07-21T12:35:04.493Z,26.10
2018-07-21T12:39:59.083Z,26.30
2018-07-21T12:49:48.007Z,26.20
2018-07-21T12:54:42.637Z,26.30
2018-07-21T12:59:37.230Z,26.60
2018-07-21T13:04:31.853Z,26.60
2018-07-21T13:09:26.450Z,26.40
2018-07-21T13:14:21.138Z,26.40
2018-07-21T13:19:15.773Z,26.10
2018-07-21T13:24:10.577Z,26.10
2018-07-21T13:29:05.199Z,26.00
2018-07-21T13:33:59.864Z,25.90
2018-07-21T13:38:54.573Z,26.00
2018-07-21T13:43:49.251Z,26.00
2018-07-21T13:48:43.863Z,25.80
2018-07-21T13:53:38.616Z,25.70
2018-07-21T13:58:33.239Z,25.80
2018-07-21T14:03:27.895Z,25.80
2018-07-21T14:08:22.486Z,25.80
2018-07-21T14:13:17.049Z,25.50
2018-07-21T14:18:11.644Z,25.30
2018-07-21T14:23:06.247Z,25.30
2018-07-21T14:28:00.930Z,25.10
2018-07-21T14:32:55.614Z,24.90
2018-07-21T14:37:50.220Z,25.00
2018-07-21T14:42:44.908Z,24.80
2018-07-21T14:47:39.548Z,24.80
2018-07-21T14:52:34.165Z,24.70
2018-07-21T14:57:28.790Z,24.90
2018-07-21T15:02:23.470Z,24.90
2018-07-21T15:07:18.059Z,24.60
2018-07-21T15:12:12.664Z,24.30
2018-07-21T15:17:07.327Z,24.30
2018-07-21T15:22:01.982Z,24.00
2018-07-21T15:26:56.672Z,23.90
2018-07-21T15:31:51.299Z,23.80
2018-07-21T15:36:45.903Z,23.70
2018-07-21T15:41:40.547Z,23.70
2018-07-21T15:46:35.316Z,23.50
2018-07-21T15:51:29.939Z,23.40
2018-07-21T15:56:24.558Z,23.20
2018-07-21T16:01:19.188Z,23.00
2018-07-21T16:06:13.781Z,22.80
2018-07-21T16:11:08.380Z,22.70
2018-07-21T16:16:02.981Z,22.90
2018-07-21T16:20:57.565Z,23.00
2018-07-21T16:25:52.288Z,23.00
2018-07-21T16:30:46.957Z,23.00
2018-07-21T16:35:41.656Z,22.70
2018-07-21T16:40:36.300Z,22.60
2018-07-21T16:45:30.915Z,22.50
2018-07-21T16:50:25.511Z,22.40
2018-07-21T16:55:20.188Z,22.50
2018-07-21T17:05:09.083Z,22.20
2018-07-21T17:10:03.771Z,22.10
2018-07-21T17:14:58.485Z,22.00
2018-07-21T17:19:53.180Z,21.80
2018-07-21T17:24:47.966Z,21.30
2018-07-21T17:29:42.627Z,21.00
2018-07-21T17:34:37.291Z,21.10
2018-07-21T17:39:31.928Z,21.10
2018-07-21T17:44:26.660Z,21.00
2018-07-21T17:49:21.414Z,21.10
2018-07-21T17:54:16.106Z,21.10
2018-07-21T17:59:10.984Z,21.20
2018-07-21T18:04:05.801Z,21.30
2018-07-21T18:09:00.449Z,21.30
2018-07-21T18:13:55.366Z,21.10
2018-07-21T18:18:50.048Z,21.00
2018-07-21T18:23:44.811Z,21.00
2018-07-21T18:28:39.446Z,21.00
2018-07-21T18:33:34.261Z,20.90
2018-07-21T18:38:28.903Z,20.90
2018-07-21T18:48:17.953Z,20.80
2018-07-21T18:53:12.653Z,20.80
2018-07-21T18:58:07.342Z,20.80
2018-07-21T19:07:56.470Z,20.70
2018-07-21T19:12:51.222Z,20.60
2018-07-21T19:17:45.966Z,20.50
2018-07-21T19:22:40.709Z,20.50
2018-07-21T19:27:35.696Z,20.40
2018-07-21T19:32:36.080Z,20.40
2018-07-21T19:37:35.953Z,20.40
2018-07-21T19:42:30.596Z,20.40
2018-07-21T19:47:25.319Z,20.30
2018-07-21T19:52:19.813Z,20.30
2018-07-21T19:57:14.461Z,20.30
2018-07-21T20:02:09.148Z,20.30
2018-07-21T20:07:03.800Z,20.20
2018-07-21T20:11:58.397Z,20.30
2018-07-21T20:16:53.108Z,20.30
2018-07-21T20:21:47.717Z,20.20
2018-07-21T20:26:42.415Z,20.20
2018-07-21T20:31:37.224Z,20.20
2018-07-21T20:36:31.980Z,20.10
2018-07-21T20:41:26.824Z,20.10
2018-07-21T20:46:21.770Z,19.60
2018-07-21T20:51:16.626Z,19.60
2018-07-21T20:56:11.856Z,19.40
2018-07-21T21:01:07.391Z,19.40
2018-07-21T21:06:02.232Z,19.30
2018-07-21T21:10:57.095Z,19.30
2018-07-21T21:20:46.314Z,19.10
2018-07-21T21:30:35.642Z,19.10
2018-07-21T21:35:30.449Z,19.00
2018-07-21T21:45:19.695Z,19.00
2018-07-21T21:50:14.503Z,19.10
2018-07-21T21:55:09.451Z,19.00
2018-07-21T22:00:04.682Z,19.00
2018-07-21T22:05:00.012Z,19.10
2018-07-21T22:09:54.903Z,19.00
2018-07-21T22:14:49.725Z,19.10
2018-07-21T22:19:44.611Z,19.00
2018-07-21T22:24:39.572Z,19.00
2018-07-21T22:29:35.435Z,19.10
2018-07-21T22:34:30.382Z,19.10
2018-07-21T22:39:25.386Z,18.90
2018-07-21T22:44:20.160Z,18.90
2018-07-21T22:49:15.222Z,18.90
2018-07-21T22:54:10.018Z,18.90
2018-07-21T22:59:05.283Z,19.00
2018-07-21T23:04:00.149Z,18.90
2018-07-21T23:08:55.186Z,18.90
2018-07-21T23:13:49.962Z,19.00
2018-07-21T23:18:44.865Z,18.90
2018-07-21T23:23:39.695Z,18.90
2018-07-21T23:28:34.514Z,18.80
2018-07-21T23:33:29.313Z,18.80
2018-07-21T23:38:24.096Z,18.80
2018-07-21T23:43:18.968Z,18.80
2018-07-21T23:48:13.867Z,18.80
2018-07-21T23:53:08.629Z,18.70
2018-07-21T23:58:03.499Z,18.80
